Time;durP1;ratioP1;P1;durP2;ratioP2;P2;SDS_P1;SDS_P2;PMS_P1;PMS_P2;Temp;Humidity;BMP_temperature;BMP_pressure;BME280_temperature;BME280_humidity;BME280_pressure;Samples;Min_cycle;Max_cycle;Signal;HPM_P1;HPM_P2
2022/05/10 00:00:50;;;;;;;;;;;;;;;20.29;48.60;100229.09;4449959;32;34957;-70
2022/05/10 00:03:19;;;;;;;;;;;;;;;20.21;48.87;100238.09;4449985;32;33153;-70
2022/05/10 00:05:46;;;;;;;;;;;;;;;20.12;49.09;100239.06;4445497;32;34101;-70
2022/05/10 00:08:15;;;;;;;;;;;;;;;20.15;48.95;100234.16;4446263;32;35002;-71
2022/05/10 00:10:43;;;;;;;;;;;;;;;20.16;48.87;100230.44;4441486;32;32617;-71
2022/05/10 00:13:11;;;;;;;;;;;;;;;20.02;49.28;100236.50;4445362;32;33270;-70
2022/05/10 00:15:39;;;;;;;;;;;;;;;20.25;48.68;100229.44;4447920;32;34110;-71
2022/05/10 00:18:09;;;;;;;;;;;;;;;20.28;48.47;100236.41;4431561;32;33958;-71
2022/05/10 00:20:37;;;;;;;;;;;;;;;20.26;48.40;100230.31;4449103;32;33569;-71
2022/05/10 00:23:04;;;;;;;;;;;;;;;20.30;48.51;100228.09;4445900;32;34540;-70
2022/05/10 00:25:32;;;;;;;;;;;;;;;19.90;49.64;100237.78;4448708;32;34267;-69
2022/05/10 00:28:00;;;;;;;;;;;;;;;19.97;49.66;100228.84;4447506;32;34055;-71
2022/05/10 00:30:28;;;;;;;;;;;;;;;19.98;49.39;100226.97;4447108;32;35330;-71
2022/05/10 00:32:55;;;;;;;;;;;;;;;20.11;49.03;100221.94;4449284;32;35045;-71
2022/05/10 00:35:24;;;;;;;;;;;;;;;20.21;48.67;100222.63;4446211;32;34211;-71
2022/05/10 00:37:53;;;;;;;;;;;;;;;20.12;48.71;100212.75;4449456;32;34459;-71
2022/05/10 00:40:27;;;;;;;;;;;;;;;20.29;48.59;100215.50;4449745;32;35039;-72
2022/05/10 00:43:05;;;;;;;;;;;;;;;20.24;48.41;100214.16;4446818;32;32137;-70
2022/05/10 00:45:52;;;;;;;;;;;;;;;20.28;48.56;100209.22;4444639;32;32801;-70
2022/05/10 00:48:26;;;;;;;;;;;;;;;20.25;48.58;100206.84;4446228;32;32592;-71
2022/05/10 00:51:18;;;;;;;;;;;;;;;19.86;49.85;100201.12;4447396;32;32815;-72
2022/05/10 00:53:54;;;;;;;;;;;;;;;19.72;50.21;100206.16;4418011;32;32913;-71
2022/05/10 00:56:34;;;;;;;;;;;;;;;20.04;48.97;100204.59;4434958;32;34438;-71
2022/05/10 00:59:08;;;;;;;;;;;;;;;19.90;49.17;100202.47;4445197;32;34510;-70
2022/05/10 01:01:36;;;;;;;;;;;;;;;19.77;49.42;100197.50;4446932;32;35150;-72
2022/05/10 01:04:14;;;;;;;;;;;;;;;19.86;48.99;100198.41;4446644;32;33331;-71
2022/05/10 01:06:54;;;;;;;;;;;;;;;19.70;49.36;100186.44;4444747;32;34505;-72
2022/05/10 01:09:41;;;;;;;;;;;;;;;19.43;50.30;100192.06;4448103;32;34565;-71
2022/05/10 01:12:14;;;;;;;;;;;;;;;19.67;49.70;100186.78;4439228;32;34068;-70
2022/05/10 01:14:47;;;;;;;;;;;;;;;19.68;49.67;100190.38;4441137;32;32047;-69
2022/05/10 01:17:16;;;;;;;;;;;;;;;19.77;49.43;100182.09;4440049;32;32709;-69
2022/05/10 01:19:44;;;;;;;;;;;;;;;19.71;49.67;100184.56;4442024;32;33999;-69
2022/05/10 01:22:30;;;;;;;;;;;;;;;19.79;49.55;100179.19;4443493;32;34686;-68
2022/05/10 01:25:17;;;;;;;;;;;;;;;19.43;50.47;100173.91;4443654;32;32952;-69
2022/05/10 01:28:03;;;;;;;;;;;;;;;19.74;49.61;100168.84;4439981;32;32866;-69
2022/05/10 01:30:31;;;;;;;;;;;;;;;19.78;49.50;100172.91;4446499;32;34456;-69
2022/05/10 01:35:57;;;;;;;;;;;;;;;19.43;50.27;100170.34;4447341;32;33460;-69
2022/05/10 01:38:34;;;;;;;;;;;;;;;19.64;50.07;100175.38;4447682;32;33001;-70
2022/05/10 01:41:17;;;;;;;;;;;;;;;19.58;50.28;100174.12;4443569;32;35882;-70
2022/05/10 01:44:04;;;;;;;;;;;;;;;19.73;50.07;100171.69;4447095;32;32823;-70
2022/05/10 01:46:35;;;;;;;;;;;;;;;19.78;49.58;100167.47;4445936;32;33101;-70
2022/05/10 01:49:37;;;;;;;;;;;;;;;19.72;49.78;100162.69;4441373;32;33745;-70
2022/05/10 01:52:12;;;;;;;;;;;;;;;19.52;50.31;100166.66;4415075;32;34052;-68
2022/05/10 01:54:41;;;;;;;;;;;;;;;19.42;50.64;100163.19;4446946;32;34408;-69
2022/05/10 01:57:12;;;;;;;;;;;;;;;19.37;50.50;100162.84;4435356;32;33604;-69
2022/05/10 01:59:41;;;;;;;;;;;;;;;19.45;50.10;100158.28;4443892;32;34108;-68
2022/05/10 02:02:10;;;;;;;;;;;;;;;19.50;49.92;100161.38;4446070;32;33162;-69
2022/05/10 02:04:42;;;;;;;;;;;;;;;19.52;49.72;100166.66;4447787;32;33979;-70
2022/05/10 02:07:14;;;;;;;;;;;;;;;19.42;49.97;100161.34;4446603;32;32234;-70
2022/05/10 02:09:46;;;;;;;;;;;;;;;19.58;49.30;100154.28;4445785;32;34264;-69
2022/05/10 02:12:17;;;;;;;;;;;;;;;19.46;49.62;100160.00;4447136;32;33731;-70
2022/05/10 02:14:55;;;;;;;;;;;;;;;19.43;49.74;100154.91;4450352;32;33779;-69
2022/05/10 02:17:37;;;;;;;;;;;;;;;19.57;49.37;100155.31;4447898;32;33082;-70
2022/05/10 02:20:20;;;;;;;;;;;;;;;19.33;49.80;100158.75;4448746;32;33021;-70
2022/05/10 02:22:53;;;;;;;;;;;;;;;19.43;49.60;100159.50;4440482;32;32862;-69
2022/05/10 02:25:25;;;;;;;;;;;;;;;19.53;49.11;100157.50;4444121;32;35204;-70
2022/05/10 02:27:55;;;;;;;;;;;;;;;19.56;48.67;100157.16;4445599;32;32446;-70
2022/05/10 02:30:26;;;;;;;;;;;;;;;19.45;48.91;100158.28;4448612;32;33361;-69
2022/05/10 02:33:09;;;;;;;;;;;;;;;19.17;49.97;100154.94;4445630;32;33066;-70
2022/05/10 02:35:45;;;;;;;;;;;;;;;19.43;49.31;100154.06;4448541;32;34054;-69
2022/05/10 02:38:15;;;;;;;;;;;;;;;19.44;49.30;100156.59;4436065;32;30714;-69
2022/05/10 02:40:45;;;;;;;;;;;;;;;19.22;49.77;100155.28;4448054;32;33946;-69
2022/05/10 02:43:17;;;;;;;;;;;;;;;18.98;50.28;100147.84;4436926;32;34266;-69
2022/05/10 02:45:48;;;;;;;;;;;;;;;19.17;50.00;100146.78;4448248;32;35287;-69
2022/05/10 02:48:21;;;;;;;;;;;;;;;19.21;49.71;100142.75;4450450;32;34380;-70
2022/05/10 02:50:50;;;;;;;;;;;;;;;18.87;50.14;100147.25;4448651;32;33037;-69
2022/05/10 02:53:19;;;;;;;;;;;;;;;19.19;49.32;100139.31;4447795;32;33313;-69
2022/05/10 02:56:03;;;;;;;;;;;;;;;18.94;49.41;100142.88;4445889;32;33310;-69
2022/05/10 02:58:32;;;;;;;;;;;;;;;19.20;48.89;100143.75;4449157;32;34204;-68
2022/05/10 03:01:14;;;;;;;;;;;;;;;19.21;49.04;100144.59;4449962;32;33797;-69
2022/05/10 03:03:44;;;;;;;;;;;;;;;19.16;49.24;100145.06;4447818;32;32041;-69
2022/05/10 03:06:19;;;;;;;;;;;;;;;19.05;49.35;100148.91;4445546;32;35171;-71
2022/05/10 03:08:47;;;;;;;;;;;;;;;18.94;49.62;100141.06;4449564;32;33280;-70
2022/05/10 03:11:16;;;;;;;;;;;;;;;19.00;49.43;100145.81;4449384;32;33098;-70
2022/05/10 03:13:44;;;;;;;;;;;;;;;19.02;49.05;100145.66;4445148;32;34290;-71
2022/05/10 03:16:17;;;;;;;;;;;;;;;18.91;49.26;100145.91;4449013;32;34052;-71
2022/05/10 03:18:46;;;;;;;;;;;;;;;18.85;49.32;100142.84;4447231;32;32480;-71
2022/05/10 03:21:14;;;;;;;;;;;;;;;18.70;49.75;100144.38;4450555;32;34253;-71
2022/05/10 03:23:42;;;;;;;;;;;;;;;18.57;49.82;100143.94;4451137;32;33839;-71
2022/05/10 03:26:11;;;;;;;;;;;;;;;18.80;48.96;100138.91;4448532;32;33981;-70
2022/05/10 03:28:39;;;;;;;;;;;;;;;18.68;49.28;100145.53;4445631;32;31333;-71
2022/05/10 03:31:08;;;;;;;;;;;;;;;18.23;50.90;100150.06;4450186;32;32477;-70
2022/05/10 03:33:37;;;;;;;;;;;;;;;18.55;49.63;100144.09;4449576;32;34349;-70
2022/05/10 03:36:06;;;;;;;;;;;;;;;18.61;49.35;100151.59;4447591;32;33916;-71
2022/05/10 03:38:36;;;;;;;;;;;;;;;18.49;49.62;100149.28;4449689;32;33685;-71
2022/05/10 03:41:04;;;;;;;;;;;;;;;18.33;49.88;100152.69;4450031;32;33821;-71
2022/05/10 03:43:32;;;;;;;;;;;;;;;18.69;48.84;100152.69;4449779;32;34195;-70
2022/05/10 03:46:05;;;;;;;;;;;;;;;18.68;48.68;100148.25;4450200;32;34083;-71
2022/05/10 03:48:33;;;;;;;;;;;;;;;18.64;49.04;100145.00;4446823;32;32061;-71
2022/05/10 03:51:02;;;;;;;;;;;;;;;18.65;48.80;100152.16;4450404;32;33007;-71
2022/05/10 03:53:30;;;;;;;;;;;;;;;18.45;49.65;100147.91;4450177;32;34938;-71
2022/05/10 03:55:58;;;;;;;;;;;;;;;18.79;48.32;100148.06;4444757;32;33907;-71
2022/05/10 03:58:29;;;;;;;;;;;;;;;18.74;49.17;100147.66;4448267;32;34393;-71
2022/05/10 04:01:01;;;;;;;;;;;;;;;18.84;48.12;100143.00;4448495;32;34953;-71
2022/05/10 04:03:29;;;;;;;;;;;;;;;18.82;48.13;100137.75;4449648;32;34951;-70
2022/05/10 04:05:58;;;;;;;;;;;;;;;18.54;49.23;100138.84;4448485;32;35319;-70
2022/05/10 04:08:27;;;;;;;;;;;;;;;18.95;48.31;100141.91;4446110;32;34569;-70
2022/05/10 04:11:00;;;;;;;;;;;;;;;19.07;48.10;100140.62;4443634;32;34169;-71
2022/05/10 04:13:34;;;;;;;;;;;;;;;19.05;48.22;100139.94;4447906;32;34845;-70
2022/05/10 04:16:03;;;;;;;;;;;;;;;19.02;48.35;100145.66;4446595;32;31284;-70
2022/05/10 04:18:32;;;;;;;;;;;;;;;19.08;48.30;100151.31;4447098;32;34196;-70
2022/05/10 04:21:00;;;;;;;;;;;;;;;18.98;49.54;100157.84;4447931;32;34215;-70
2022/05/10 04:23:29;;;;;;;;;;;;;;;19.22;48.11;100151.72;4446717;32;33067;-70
2022/05/10 04:26:13;;;;;;;;;;;;;;;19.22;48.07;100155.28;4448220;32;33943;-70
2022/05/10 04:28:42;;;;;;;;;;;;;;;19.39;48.01;100153.53;4444410;32;34262;-70
2022/05/10 04:31:11;;;;;;;;;;;;;;;19.62;47.57;100153.81;4443803;32;34021;-70
2022/05/10 04:33:39;;;;;;;;;;;;;;;19.90;47.04;100156.31;4445126;32;32989;-70
2022/05/10 04:36:08;;;;;;;;;;;;;;;20.05;46.94;100162.81;4446386;32;34212;-70
2022/05/10 04:38:44;;;;;;;;;;;;;;;19.99;46.49;100158.03;4447076;32;32265;-71
2022/05/10 04:41:26;;;;;;;;;;;;;;;20.10;46.48;100171.31;4448353;32;33843;-70
2022/05/10 04:43:55;;;;;;;;;;;;;;;20.22;46.67;100170.00;4439866;32;34175;-71
2022/05/10 04:46:27;;;;;;;;;;;;;;;20.48;45.78;100169.00;4444486;32;34488;-70
2022/05/10 04:49:06;;;;;;;;;;;;;;;20.63;45.57;100169.22;4448496;32;33279;-70
2022/05/10 04:51:35;;;;;;;;;;;;;;;20.63;46.35;100169.22;4448761;32;33080;-70
2022/05/10 04:54:04;;;;;;;;;;;;;;;20.78;45.66;100175.69;4447694;32;37376;-70
2022/05/10 04:56:32;;;;;;;;;;;;;;;20.58;46.88;100169.72;4448466;32;33836;-70
2022/05/10 04:59:01;;;;;;;;;;;;;;;20.66;46.70;100174.31;4446437;32;34470;-70
2022/05/10 05:01:30;;;;;;;;;;;;;;;20.89;45.90;100179.91;4442117;32;33174;-70
2022/05/10 05:04:01;;;;;;;;;;;;;;;20.99;45.66;100171.56;4442931;32;34057;-70
2022/05/10 05:06:30;;;;;;;;;;;;;;;21.18;45.24;100177.50;4449387;32;34047;-70
2022/05/10 05:08:58;;;;;;;;;;;;;;;21.33;44.72;100172.19;4443920;32;31904;-70
2022/05/10 05:11:26;;;;;;;;;;;;;;;21.48;44.28;100176.97;4443695;32;34194;-70
2022/05/10 05:13:55;;;;;;;;;;;;;;;21.67;43.63;100187.47;4449659;32;35246;-71
2022/05/10 05:16:23;;;;;;;;;;;;;;;21.79;43.08;100179.75;4447924;32;33951;-71
2022/05/10 05:18:51;;;;;;;;;;;;;;;21.82;42.62;100180.22;4449809;32;32153;-71
2022/05/10 05:21:20;;;;;;;;;;;;;;;21.79;42.71;100186.03;4449889;32;34081;-71
2022/05/10 05:23:49;;;;;;;;;;;;;;;21.95;43.01;100181.53;4446457;32;34451;-74
2022/05/10 05:26:18;;;;;;;;;;;;;;;22.02;42.39;100197.03;4449448;32;34259;-72
2022/05/10 05:28:47;;;;;;;;;;;;;;;22.05;42.48;100193.06;4446008;32;33421;-71
2022/05/10 05:31:15;;;;;;;;;;;;;;;22.04;42.32;100189.50;4447873;32;35371;-70
2022/05/10 05:33:46;;;;;;;;;;;;;;;21.99;43.31;100193.78;4444773;32;35099;-70
2022/05/10 05:36:15;;;;;;;;;;;;;;;22.13;43.37;100195.75;4447732;32;34902;-71
2022/05/10 05:38:45;;;;;;;;;;;;;;;22.19;43.33;100200.53;4446422;32;33147;-70
2022/05/10 05:41:13;;;;;;;;;;;;;;;22.24;42.95;100195.38;4438201;32;34043;-70
2022/05/10 05:43:42;;;;;;;;;;;;;;;22.26;43.03;100200.66;4450243;32;34270;-71
2022/05/10 05:46:10;;;;;;;;;;;;;;;22.27;43.23;100202.34;4449040;32;35071;-71
2022/05/10 05:48:39;;;;;;;;;;;;;;;22.31;42.83;100200.97;4449039;32;34132;-73
2022/05/10 05:51:07;;;;;;;;;;;;;;;22.39;42.30;100191.91;4446563;32;35576;-74
2022/05/10 05:53:35;;;;;;;;;;;;;;;22.47;41.99;100195.44;4447292;32;35087;-70
2022/05/10 05:56:05;;;;;;;;;;;;;;;22.47;41.74;100202.75;4445143;32;33726;-71
2022/05/10 05:58:33;;;;;;;;;;;;;;;22.14;41.66;100200.19;4440484;32;33230;-72
2022/05/10 06:01:01;;;;;;;;;;;;;;;22.16;41.92;100194.59;4448937;32;33839;-72
2022/05/10 06:03:29;;;;;;;;;;;;;;;22.17;41.97;100201.75;4444041;32;33958;-72
2022/05/10 06:05:57;;;;;;;;;;;;;;;22.38;41.47;100196.50;4447719;32;33578;-72
2022/05/10 06:08:25;;;;;;;;;;;;;;;21.96;42.16;100195.00;4445406;32;33061;-72
2022/05/10 06:10:55;;;;;;;;;;;;;;;21.79;42.49;100207.81;4449052;32;34568;-72
2022/05/10 06:13:24;;;;;;;;;;;;;;;21.81;42.52;100207.66;4449143;32;34168;-75
2022/05/10 06:15:52;;;;;;;;;;;;;;;22.27;42.07;100203.19;4440995;32;34220;-74
2022/05/10 06:18:20;;;;;;;;;;;;;;;22.04;42.70;100205.84;4447940;32;32705;-72
2022/05/10 06:20:53;;;;;;;;;;;;;;;22.47;42.75;100200.00;4444375;32;34389;-74
2022/05/10 06:23:21;;;;;;;;;;;;;;;22.79;41.64;100205.25;4447482;32;33192;-74
2022/05/10 06:25:49;;;;;;;;;;;;;;;22.77;40.67;100207.31;4447979;32;34237;-73
2022/05/10 06:28:17;;;;;;;;;;;;;;;22.68;41.25;100202.09;4443657;32;33227;-73
2022/05/10 06:30:46;;;;;;;;;;;;;;;21.80;42.53;100211.44;4444057;32;34042;-73
2022/05/10 06:33:15;;;;;;;;;;;;;;;22.51;41.40;100210.41;4446391;32;34327;-70
2022/05/10 06:35:44;;;;;;;;;;;;;;;21.91;41.34;100221.09;4446963;32;33119;-70
2022/05/10 06:38:28;;;;;;;;;;;;;;;22.58;40.64;100212.41;4448624;32;32223;-70
2022/05/10 06:40:57;;;;;;;;;;;;;;;22.71;40.04;100204.47;4416423;32;1010902;-70
2022/05/10 06:43:35;;;;;;;;;;;;;;;21.86;41.27;100207.97;4448986;32;34475;-70
2022/05/10 06:46:13;;;;;;;;;;;;;;;22.31;40.83;100212.75;4447037;32;33911;-70
2022/05/10 06:48:45;;;;;;;;;;;;;;;22.68;39.76;100202.09;4451371;32;33119;-69
2022/05/10 06:51:15;;;;;;;;;;;;;;;22.72;40.22;100204.25;4450281;32;33147;-70
2022/05/10 06:53:44;;;;;;;;;;;;;;;22.26;40.89;100201.50;4450430;32;35667;-70
2022/05/10 06:56:12;;;;;;;;;;;;;;;22.77;39.05;100206.47;4440666;32;32231;-69
2022/05/10 06:58:41;;;;;;;;;;;;;;;23.02;37.29;100205.25;4445413;32;33174;-69
2022/05/10 07:01:12;;;;;;;;;;;;;;;22.89;37.25;100209.59;4448064;32;33823;-70
2022/05/10 07:03:46;;;;;;;;;;;;;;;23.19;37.16;100205.94;4443402;32;34089;-70
2022/05/10 07:06:17;;;;;;;;;;;;;;;23.17;36.21;100202.53;4445831;32;34422;-70
2022/05/10 07:08:48;;;;;;;;;;;;;;;22.94;36.27;100201.75;4452131;32;33312;-70
2022/05/10 07:11:18;;;;;;;;;;;;;;;23.16;35.51;100208.19;4450619;32;34258;-70
2022/05/10 07:13:47;;;;;;;;;;;;;;;23.33;35.28;100204.25;4448461;32;34792;-70
2022/05/10 07:16:17;;;;;;;;;;;;;;;23.19;34.79;100202.38;4445921;32;33163;-69
2022/05/10 07:18:45;;;;;;;;;;;;;;;23.42;34.13;100202.31;4447511;32;32634;-70
2022/05/10 07:21:14;;;;;;;;;;;;;;;23.17;32.56;100208.00;4447185;32;35404;-69
2022/05/10 07:23:44;;;;;;;;;;;;;;;23.19;34.19;100210.56;4445126;32;34301;-69
2022/05/10 07:26:14;;;;;;;;;;;;;;;23.13;33.68;100206.69;4444776;32;35120;-70
2022/05/10 07:28:43;;;;;;;;;;;;;;;23.11;33.82;100207.91;4447768;32;32488;-69
2022/05/10 07:31:15;;;;;;;;;;;;;;;23.04;34.71;100204.22;4444256;32;33493;-70
2022/05/10 07:33:46;;;;;;;;;;;;;;;23.35;35.32;100209.56;4448820;32;32804;-70
2022/05/10 07:36:24;;;;;;;;;;;;;;;23.17;35.12;100212.63;4449041;32;34035;-70
2022/05/10 07:38:54;;;;;;;;;;;;;;;23.22;34.70;100212.94;4451353;32;32391;-70
2022/05/10 07:41:22;;;;;;;;;;;;;;;23.58;35.52;100210.31;4446335;32;32870;-70
2022/05/10 07:43:52;;;;;;;;;;;;;;;23.60;35.56;100219.19;4448768;32;33148;-70
2022/05/10 07:46:22;;;;;;;;;;;;;;;23.93;35.61;100214.19;4448147;32;33957;-70
2022/05/10 07:48:51;;;;;;;;;;;;;;;23.80;35.81;100210.44;4446035;32;34327;-70
2022/05/10 07:51:22;;;;;;;;;;;;;;;24.03;34.24;100218.53;4448518;32;33044;-70
2022/05/10 07:53:54;;;;;;;;;;;;;;;24.02;34.81;100216.84;4446491;32;34462;-70
2022/05/10 07:56:29;;;;;;;;;;;;;;;23.99;34.75;100211.75;4435414;32;32731;-70
2022/05/10 07:58:57;;;;;;;;;;;;;;;23.90;35.74;100203.66;4450855;32;33388;-70
2022/05/10 08:01:26;;;;;;;;;;;;;;;24.14;33.30;100207.97;4446488;32;33804;-70
2022/05/10 08:03:55;;;;;;;;;;;;;;;24.23;33.57;100208.69;4445286;32;34363;-70
2022/05/10 08:06:23;;;;;;;;;;;;;;;24.34;34.11;100202.72;4446107;32;32805;-70
2022/05/10 08:08:51;;;;;;;;;;;;;;;24.53;33.19;100208.66;4445175;32;34389;-70
2022/05/10 08:11:20;;;;;;;;;;;;;;;24.04;34.69;100209.28;4446313;32;33996;-70
2022/05/10 08:13:48;;;;;;;;;;;;;;;24.66;33.25;100207.94;4450554;32;34373;-70
2022/05/10 08:16:17;;;;;;;;;;;;;;;23.85;34.48;100206.13;4442414;32;34121;-70
2022/05/10 08:18:49;;;;;;;;;;;;;;;23.78;34.64;100194.22;4441000;32;32148;-70
2022/05/10 08:21:18;;;;;;;;;;;;;;;24.51;34.89;100202.50;4448069;32;34878;-70
2022/05/10 08:23:49;;;;;;;;;;;;;;;24.14;33.79;100196.16;4444829;32;33997;-70
2022/05/10 08:26:21;;;;;;;;;;;;;;;23.93;34.96;100199.69;4445415;32;32591;-70
2022/05/10 08:28:58;;;;;;;;;;;;;;;24.55;33.22;100193.69;4453107;32;33024;-70
2022/05/10 08:31:31;;;;;;;;;;;;;;;24.13;32.80;100197.19;4450171;32;33842;-69
2022/05/10 08:34:12;;;;;;;;;;;;;;;24.35;33.09;100198.94;4448140;32;34284;-70
2022/05/10 08:36:55;;;;;;;;;;;;;;;24.53;32.93;100193.06;4448824;32;34420;-70
2022/05/10 08:39:40;;;;;;;;;;;;;;;24.18;32.50;100195.59;4452476;32;32170;-70
2022/05/10 08:42:20;;;;;;;;;;;;;;;24.79;32.21;100188.91;4445883;32;33891;-70
2022/05/10 08:45:04;;;;;;;;;;;;;;;24.77;31.85;100191.81;4455201;32;33444;-70
2022/05/10 08:47:46;;;;;;;;;;;;;;;25.12;32.13;100183.72;4448682;32;34668;-70
2022/05/10 08:50:16;;;;;;;;;;;;;;;25.06;32.58;100181.75;4450834;32;34547;-71
2022/05/10 08:53:11;;;;;;;;;;;;;;;25.04;31.75;100184.69;4450438;32;32779;-71
2022/05/10 08:55:48;;;;;;;;;;;;;;;24.96;32.97;100190.31;4442604;32;33062;-71
2022/05/10 08:58:31;;;;;;;;;;;;;;;25.26;32.17;100173.72;4447392;32;32594;-71
2022/05/10 09:01:21;;;;;;;;;;;;;;;25.27;31.91;100179.00;4450002;32;33293;-70
2022/05/10 09:04:36;;;;;;;;;;;;;;;25.53;31.48;100177.47;4445129;32;34287;-70
2022/05/10 09:07:35;;;;;;;;;;;;;;;24.81;31.89;100178.59;4398139;32;34326;-70
2022/05/10 09:10:32;;;;;;;;;;;;;;;25.29;31.80;100176.88;4446848;32;33903;-70
2022/05/10 09:13:19;;;;;;;;;;;;;;;25.72;30.30;100171.25;4449523;32;33489;-70
2022/05/10 09:16:02;;;;;;;;;;;;;;;25.41;32.64;100179.09;4449827;32;34260;-70
2022/05/10 09:18:42;;;;;;;;;;;;;;;25.60;31.67;100167.41;4451971;32;34485;-70
2022/05/10 09:21:19;;;;;;;;;;;;;;;25.40;31.00;100164.53;4447046;32;34222;-71
2022/05/10 09:24:06;;;;;;;;;;;;;;;26.07;30.09;100164.88;4448891;32;32923;-71
2022/05/10 09:26:47;;;;;;;;;;;;;;;25.97;30.54;100165.28;4451847;32;32934;-71
2022/05/10 09:29:35;;;;;;;;;;;;;;;24.57;32.73;100166.16;4450533;32;34271;-70
2022/05/10 09:35:12;;;;;;;;;;;;;;;25.74;31.04;100169.16;4447042;32;33250;-70
2022/05/10 09:37:52;;;;;;;;;;;;;;;25.74;30.69;100176.53;4445419;32;35200;-70
2022/05/10 09:40:32;;;;;;;;;;;;;;;24.75;34.68;100176.63;4447364;32;34284;-70
2022/05/10 09:43:17;;;;;;;;;;;;;;;24.92;34.23;100175.31;4449934;32;33866;-70
2022/05/10 09:46:15;;;;;;;;;;;;;;;25.45;32.89;100167.50;4456549;32;33416;-70
2022/05/10 09:48:57;;;;;;;;;;;;;;;25.46;32.74;100174.72;4448939;32;34105;-70
2022/05/10 09:51:37;;;;;;;;;;;;;;;25.72;32.38;100167.69;4445423;32;34177;-70
2022/05/10 09:54:18;;;;;;;;;;;;;;;25.11;32.24;100165.56;4449249;32;32819;-70
2022/05/10 09:56:56;;;;;;;;;;;;;;;25.46;32.64;100168.38;4452591;32;33525;-70
2022/05/10 09:59:44;;;;;;;;;;;;;;;25.49;33.06;100159.72;4448251;32;32776;-70
2022/05/10 10:02:32;;;;;;;;;;;;;;;25.70;32.42;100161.53;4439868;32;32920;-70
2022/05/10 10:05:21;;;;;;;;;;;;;;;25.96;31.99;100158.09;4451701;32;33100;-70
2022/05/10 10:08:00;;;;;;;;;;;;;;;26.67;31.45;100149.44;4447596;32;32169;-71
2022/05/10 10:10:35;;;;;;;;;;;;;;;26.22;31.34;100143.62;4456673;32;32919;-70
2022/05/10 10:13:30;;;;;;;;;;;;;;;26.53;31.26;100145.00;4460813;32;34911;-70
2022/05/10 10:16:16;;;;;;;;;;;;;;;26.51;29.97;100142.44;4448227;32;32863;-70
2022/05/10 10:18:48;;;;;;;;;;;;;;;27.12;30.50;100134.00;4446962;32;33486;-70
2022/05/10 10:21:54;;;;;;;;;;;;;;;27.14;29.08;100131.09;4447344;32;34285;-71
2022/05/10 10:24:33;;;;;;;;;;;;;;;26.87;29.66;100125.59;4419280;32;33088;-71
2022/05/10 10:27:30;;;;;;;;;;;;;;;26.51;31.18;100117.75;4447268;32;33910;-71
2022/05/10 10:30:03;;;;;;;;;;;;;;;26.12;32.39;100132.22;4448575;32;33918;-71
2022/05/10 10:32:37;;;;;;;;;;;;;;;26.57;30.84;100124.31;4446975;32;34075;-71
2022/05/10 10:35:17;;;;;;;;;;;;;;;27.47;29.65;100114.50;4448682;32;32756;-71
2022/05/10 10:37:58;;;;;;;;;;;;;;;27.09;30.16;100114.34;4447399;32;34586;-71
2022/05/10 10:40:31;;;;;;;;;;;;;;;26.73;30.75;100112.91;4450504;32;33151;-71
2022/05/10 10:43:05;;;;;;;;;;;;;;;25.89;31.34;100111.47;4450106;32;32948;-71
2022/05/10 10:45:44;;;;;;;;;;;;;;;26.26;31.45;100112.00;4446935;32;33340;-71
2022/05/10 10:48:34;;;;;;;;;;;;;;;26.67;31.00;100100.84;4449871;32;33737;-70
2022/05/10 10:51:01;;;;;;;;;;;;;;;26.91;30.38;100098.53;4450435;32;34376;-71
2022/05/10 10:53:29;;;;;;;;;;;;;;;27.17;30.08;100093.03;4449851;32;34354;-71
2022/05/10 10:55:57;;;;;;;;;;;;;;;26.73;30.44;100088.19;4444393;32;33995;-70
2022/05/10 10:58:28;;;;;;;;;;;;;;;26.85;31.08;100080.16;4449681;32;35157;-70
2022/05/10 11:00:59;;;;;;;;;;;;;;;27.23;29.16;100080.34;4443087;32;33617;-70
2022/05/10 11:03:41;;;;;;;;;;;;;;;26.88;31.06;100088.81;4445266;32;33425;-71
2022/05/10 11:06:20;;;;;;;;;;;;;;;27.45;29.24;100083.66;4445607;32;32470;-73
2022/05/10 11:09:06;;;;;;;;;;;;;;;27.64;29.06;100082.75;4436687;32;33022;-75
2022/05/10 11:11:40;;;;;;;;;;;;;;;27.88;28.76;100080.34;4441644;32;31211;-72
2022/05/10 11:14:13;;;;;;;;;;;;;;;27.47;29.65;100080.69;4440823;32;32476;-73
2022/05/10 11:16:44;;;;;;;;;;;;;;;27.75;29.33;100070.22;4442445;32;34763;-73
2022/05/10 11:19:12;;;;;;;;;;;;;;;28.17;26.97;100064.28;4436537;32;33821;-70
2022/05/10 11:22:00;;;;;;;;;;;;;;;28.00;27.75;100086.84;4446615;32;33309;-69
2022/05/10 11:24:47;;;;;;;;;;;;;;;26.79;30.05;100092.84;4444280;32;34672;-69
2022/05/10 11:27:14;;;;;;;;;;;;;;;26.27;31.61;100079.91;4445793;32;33248;-69
2022/05/10 11:29:42;;;;;;;;;;;;;;;25.22;32.34;100082.88;4439744;32;33918;-69
2022/05/10 11:32:15;;;;;;;;;;;;;;;25.35;30.65;100079.34;4444442;32;33084;-69
2022/05/10 11:35:21;;;;;;;;;;;;;;;24.48;32.62;100080.63;4439993;32;34042;-68
2022/05/10 11:37:52;;;;;;;;;;;;;;;23.90;35.55;100079.78;4389996;32;33812;-69
2022/05/10 11:40:23;;;;;;;;;;;;;;;23.27;39.72;100075.81;4396795;32;33778;-69
2022/05/10 11:42:54;;;;;;;;;;;;;;;23.29;41.34;100090.97;4416055;32;32919;-68
2022/05/10 11:45:22;;;;;;;;;;;;;;;22.72;45.77;100094.28;4447484;32;33254;-69
2022/05/10 11:48:25;;;;;;;;;;;;;;;22.40;46.01;100095.41;4447052;32;34292;-69
2022/05/10 11:54:09;;;;;;;;;;;;;;;21.13;48.25;100095.53;4446160;32;33631;-69
2022/05/10 11:56:38;;;;;;;;;;;;;;;20.43;50.77;100093.38;4445801;32;32892;-68
2022/05/10 11:59:12;;;;;;;;;;;;;;;20.77;50.60;100094.22;4446930;32;33630;-69
2022/05/10 12:01:41;;;;;;;;;;;;;;;20.65;49.10;100088.31;4444503;32;32352;-69
2022/05/10 12:04:35;;;;;;;;;;;;;;;20.87;52.40;100076.72;4445233;32;34363;-69
2022/05/10 12:07:18;;;;;;;;;;;;;;;20.91;53.92;100075.34;4434669;32;34634;-68
2022/05/10 12:09:55;;;;;;;;;;;;;;;20.53;56.80;100074.22;4448785;32;34330;-70
2022/05/10 12:12:32;;;;;;;;;;;;;;;20.85;55.42;100070.59;4446878;32;33986;-70
2022/05/10 12:23:53;;;;;;;;;;;;;;;21.89;57.38;100046.84;4447184;32;34732;-72
2022/05/10 12:26:37;;;;;;;;;;;;;;;22.31;56.61;100040.09;4444390;32;33081;-72
2022/05/10 12:29:05;;;;;;;;;;;;;;;22.19;56.70;100027.94;4446445;32;33901;-71
2022/05/10 12:31:33;;;;;;;;;;;;;;;22.36;55.22;100023.19;4445528;32;33509;-71
2022/05/10 12:34:03;;;;;;;;;;;;;;;22.69;54.20;100016.37;4439333;32;33986;-69
2022/05/10 12:36:33;;;;;;;;;;;;;;;22.73;53.96;100017.72;4444227;32;34051;-69
2022/05/10 12:39:15;;;;;;;;;;;;;;;22.68;55.34;100011.13;4446501;32;33106;-69
2022/05/10 12:42:00;;;;;;;;;;;;;;;22.30;57.78;100008.41;4440035;32;32410;-69
2022/05/10 12:44:47;;;;;;;;;;;;;;;22.00;57.28;99999.28;4445636;32;35658;-72
2022/05/10 12:47:38;;;;;;;;;;;;;;;23.05;55.11;99996.56;4445156;32;33653;-73
2022/05/10 12:50:30;;;;;;;;;;;;;;;23.31;53.97;99995.22;4443242;32;35134;-72
2022/05/10 12:52:59;;;;;;;;;;;;;;;23.62;49.31;99984.84;4427792;32;33000;-72
2022/05/10 12:55:29;;;;;;;;;;;;;;;23.70;48.65;99990.22;4442407;32;34319;-71
2022/05/10 12:57:58;;;;;;;;;;;;;;;24.01;47.63;99971.81;4444125;32;33094;-70
2022/05/10 13:00:26;;;;;;;;;;;;;;;24.26;46.89;99973.06;4439610;32;36272;-70
2022/05/10 13:02:58;;;;;;;;;;;;;;;23.61;48.08;99971.41;4440415;32;34182;-70
2022/05/10 13:05:37;;;;;;;;;;;;;;;23.16;48.72;99965.19;4445458;32;33794;-71
2022/05/10 13:08:12;;;;;;;;;;;;;;;23.30;50.80;99958.84;4436709;32;31688;-69
2022/05/10 13:10:40;;;;;;;;;;;;;;;24.17;46.52;99952.38;4448015;32;35119;-69
2022/05/10 13:13:16;;;;;;;;;;;;;;;24.42;45.13;99950.09;4434289;32;35967;-69
2022/05/10 13:15:46;;;;;;;;;;;;;;;24.44;42.58;99938.97;4444794;32;35010;-70
2022/05/10 13:18:23;;;;;;;;;;;;;;;24.00;42.78;99940.91;4445734;32;33540;-70
2022/05/10 13:20:51;;;;;;;;;;;;;;;24.55;42.44;99938.38;4442362;32;35251;-70
2022/05/10 13:23:19;;;;;;;;;;;;;;;25.00;40.22;99933.37;4430155;32;32958;-70
2022/05/10 13:25:47;;;;;;;;;;;;;;;25.08;41.03;99920.34;4436879;32;34127;-70
2022/05/10 13:28:17;;;;;;;;;;;;;;;24.56;39.57;99918.22;4438764;32;33530;-70
2022/05/10 13:30:47;;;;;;;;;;;;;;;24.78;37.84;99922.53;4438096;32;33986;-70